sensor_id;sensor_type;location;lat;lon;timestamp;P1;durP1;ratioP1;P2;durP2;ratioP2
63008;SDS011;49099;28.428;-16.488;2023-02-26T00:01:27;4.72;;;0.77;;
63008;SDS011;49099;28.428;-16.488;2023-02-26T00:03:56;4.05;;;0.80;;
63008;SDS011;49099;28.428;-16.488;2023-02-26T00:06:25;4.80;;;0.82;;
63008;SDS011;49099;28.428;-16.488;2023-02-26T00:08:55;2.63;;;0.90;;
63008;SDS011;49099;28.428;-16.488;2023-02-26T00:11:22;2.40;;;0.70;;
63008;SDS011;49099;28.428;-16.488;2023-02-26T00:13:50;4.28;;;0.90;;
63008;SDS011;49099;28.428;-16.488;2023-02-26T00:16:22;14.70;;;1.35;;
63008;SDS011;49099;28.428;-16.488;2023-02-26T00:19:00;2.45;;;0.80;;
63008;SDS011;49099;28.428;-16.488;2023-02-26T00:21:30;1.52;;;0.70;;
63008;SDS011;49099;28.428;-16.488;2023-02-26T00:23:58;2.72;;;0.70;;
63008;SDS011;49099;28.428;-16.488;2023-02-26T00:26:26;3.33;;;0.70;;
63008;SDS011;49099;28.428;-16.488;2023-02-26T00:28:55;1.77;;;0.70;;
63008;SDS011;49099;28.428;-16.488;2023-02-26T00:31:23;3.92;;;0.80;;
63008;SDS011;49099;28.428;-16.488;2023-02-26T00:33:51;2.60;;;0.80;;
63008;SDS011;49099;28.428;-16.488;2023-02-26T00:36:23;3.15;;;0.70;;
63008;SDS011;49099;28.428;-16.488;2023-02-26T00:41:28;1.80;;;0.70;;
63008;SDS011;49099;28.428;-16.488;2023-02-26T00:43:55;1.90;;;0.95;;
63008;SDS011;49099;28.428;-16.488;2023-02-26T00:51:47;2.22;;;0.70;;
63008;SDS011;49099;28.428;-16.488;2023-02-26T00:56:49;1.85;;;0.70;;
63008;SDS011;49099;28.428;-16.488;2023-02-26T00:59:17;2.10;;;0.70;;
63008;SDS011;49099;28.428;-16.488;2023-02-26T01:01:44;4.40;;;0.70;;
63008;SDS011;49099;28.428;-16.488;2023-02-26T01:04:12;4.10;;;0.93;;
63008;SDS011;49099;28.428;-16.488;2023-02-26T01:06:41;3.85;;;1.00;;
63008;SDS011;49099;28.428;-16.488;2023-02-26T01:09:16;3.92;;;0.98;;
63008;SDS011;49099;28.428;-16.488;2023-02-26T01:11:54;2.75;;;0.93;;
63008;SDS011;49099;28.428;-16.488;2023-02-26T01:14:28;3.47;;;1.05;;
63008;SDS011;49099;28.428;-16.488;2023-02-26T01:22:02;6.15;;;1.08;;
63008;SDS011;49099;28.428;-16.488;2023-02-26T01:24:38;5.55;;;1.40;;
63008;SDS011;49099;28.428;-16.488;2023-02-26T01:27:05;7.18;;;1.20;;
63008;SDS011;49099;28.428;-16.488;2023-02-26T01:29:33;4.90;;;0.90;;
63008;SDS011;49099;28.428;-16.488;2023-02-26T01:34:35;4.38;;;1.10;;
63008;SDS011;49099;28.428;-16.488;2023-02-26T01:40:20;8.77;;;1.33;;
63008;SDS011;49099;28.428;-16.488;2023-02-26T01:43:05;7.07;;;1.17;;
63008;SDS011;49099;28.428;-16.488;2023-02-26T01:48:32;6.20;;;1.20;;
63008;SDS011;49099;28.428;-16.488;2023-02-26T01:51:03;5.13;;;1.15;;
63008;SDS011;49099;28.428;-16.488;2023-02-26T01:53:30;8.02;;;1.63;;
63008;SDS011;49099;28.428;-16.488;2023-02-26T01:56:19;9.93;;;1.40;;
63008;SDS011;49099;28.428;-16.488;2023-02-26T01:58:46;9.52;;;1.55;;
63008;SDS011;49099;28.428;-16.488;2023-02-26T02:01:15;6.18;;;1.48;;
63008;SDS011;49099;28.428;-16.488;2023-02-26T02:03:43;9.68;;;1.30;;
63008;SDS011;49099;28.428;-16.488;2023-02-26T02:06:16;4.50;;;1.23;;
63008;SDS011;49099;28.428;-16.488;2023-02-26T02:08:46;6.95;;;1.48;;
63008;SDS011;49099;28.428;-16.488;2023-02-26T02:11:14;7.60;;;1.40;;
63008;SDS011;49099;28.428;-16.488;2023-02-26T02:16:47;13.70;;;1.40;;
63008;SDS011;49099;28.428;-16.488;2023-02-26T02:19:28;6.60;;;1.50;;
63008;SDS011;49099;28.428;-16.488;2023-02-26T02:27:51;9.57;;;1.60;;
63008;SDS011;49099;28.428;-16.488;2023-02-26T02:33:18;5.93;;;1.60;;
63008;SDS011;49099;28.428;-16.488;2023-02-26T02:35:51;7.00;;;1.60;;
63008;SDS011;49099;28.428;-16.488;2023-02-26T02:38:34;5.50;;;1.20;;
63008;SDS011;49099;28.428;-16.488;2023-02-26T02:41:17;7.63;;;1.30;;
63008;SDS011;49099;28.428;-16.488;2023-02-26T02:43:48;7.72;;;1.25;;
63008;SDS011;49099;28.428;-16.488;2023-02-26T02:46:20;6.55;;;1.20;;
63008;SDS011;49099;28.428;-16.488;2023-02-26T02:48:57;9.38;;;1.70;;
63008;SDS011;49099;28.428;-16.488;2023-02-26T02:51:32;7.65;;;1.55;;
63008;SDS011;49099;28.428;-16.488;2023-02-26T02:54:05;7.47;;;1.40;;
63008;SDS011;49099;28.428;-16.488;2023-02-26T02:59:22;6.28;;;1.30;;
63008;SDS011;49099;28.428;-16.488;2023-02-26T03:02:08;4.68;;;1.23;;
63008;SDS011;49099;28.428;-16.488;2023-02-26T03:04:56;4.10;;;1.30;;
63008;SDS011;49099;28.428;-16.488;2023-02-26T03:07:23;4.07;;;1.10;;
63008;SDS011;49099;28.428;-16.488;2023-02-26T03:09:51;5.07;;;1.02;;
63008;SDS011;49099;28.428;-16.488;2023-02-26T03:12:18;5.30;;;1.00;;
63008;SDS011;49099;28.428;-16.488;2023-02-26T03:14:45;5.35;;;1.33;;
63008;SDS011;49099;28.428;-16.488;2023-02-26T03:17:19;7.35;;;1.40;;
63008;SDS011;49099;28.428;-16.488;2023-02-26T03:20:12;5.97;;;1.30;;
63008;SDS011;49099;28.428;-16.488;2023-02-26T03:23:04;6.20;;;1.38;;
63008;SDS011;49099;28.428;-16.488;2023-02-26T03:25:49;6.93;;;1.30;;
63008;SDS011;49099;28.428;-16.488;2023-02-26T03:28:22;6.38;;;1.20;;
63008;SDS011;49099;28.428;-16.488;2023-02-26T03:31:11;4.25;;;1.10;;
63008;SDS011;49099;28.428;-16.488;2023-02-26T03:33:58;5.32;;;1.10;;
63008;SDS011;49099;28.428;-16.488;2023-02-26T03:36:29;5.60;;;1.13;;
63008;SDS011;49099;28.428;-16.488;2023-02-26T03:42:21;4.20;;;1.08;;
63008;SDS011;49099;28.428;-16.488;2023-02-26T03:45:27;2.47;;;0.90;;
63008;SDS011;49099;28.428;-16.488;2023-02-26T03:47:56;3.63;;;1.00;;
63008;SDS011;49099;28.428;-16.488;2023-02-26T03:50:31;4.05;;;0.80;;
63008;SDS011;49099;28.428;-16.488;2023-02-26T03:53:11;2.75;;;1.00;;
63008;SDS011;49099;28.428;-16.488;2023-02-26T03:55:43;2.72;;;0.70;;
63008;SDS011;49099;28.428;-16.488;2023-02-26T03:58:15;5.00;;;1.05;;
63008;SDS011;49099;28.428;-16.488;2023-02-26T04:00:43;4.15;;;1.00;;
63008;SDS011;49099;28.428;-16.488;2023-02-26T04:03:15;3.30;;;0.90;;
63008;SDS011;49099;28.428;-16.488;2023-02-26T04:05:56;4.00;;;1.35;;
63008;SDS011;49099;28.428;-16.488;2023-02-26T04:08:25;2.90;;;0.82;;
63008;SDS011;49099;28.428;-16.488;2023-02-26T04:11:06;3.90;;;0.80;;
63008;SDS011;49099;28.428;-16.488;2023-02-26T04:13:37;2.72;;;0.80;;
63008;SDS011;49099;28.428;-16.488;2023-02-26T04:16:04;4.88;;;1.00;;
63008;SDS011;49099;28.428;-16.488;2023-02-26T04:18:31;2.50;;;0.82;;
63008;SDS011;49099;28.428;-16.488;2023-02-26T04:20:58;4.47;;;0.95;;
63008;SDS011;49099;28.428;-16.488;2023-02-26T04:23:25;2.22;;;0.80;;
63008;SDS011;49099;28.428;-16.488;2023-02-26T04:25:53;3.78;;;0.82;;
63008;SDS011;49099;28.428;-16.488;2023-02-26T04:28:20;7.05;;;0.90;;
63008;SDS011;49099;28.428;-16.488;2023-02-26T04:30:47;3.25;;;0.98;;
63008;SDS011;49099;28.428;-16.488;2023-02-26T04:33:14;4.88;;;0.90;;
63008;SDS011;49099;28.428;-16.488;2023-02-26T04:35:41;4.50;;;0.70;;
63008;SDS011;49099;28.428;-16.488;2023-02-26T04:38:09;1.75;;;0.70;;
63008;SDS011;49099;28.428;-16.488;2023-02-26T04:40:36;1.40;;;0.80;;
63008;SDS011;49099;28.428;-16.488;2023-02-26T04:43:03;4.20;;;0.60;;
63008;SDS011;49099;28.428;-16.488;2023-02-26T04:45:30;2.20;;;0.65;;
63008;SDS011;49099;28.428;-16.488;2023-02-26T04:47:57;1.20;;;0.70;;
63008;SDS011;49099;28.428;-16.488;2023-02-26T04:50:25;3.17;;;0.90;;
63008;SDS011;49099;28.428;-16.488;2023-02-26T04:52:52;4.30;;;0.90;;
63008;SDS011;49099;28.428;-16.488;2023-02-26T04:55:19;1.60;;;0.70;;
63008;SDS011;49099;28.428;-16.488;2023-02-26T04:57:46;2.28;;;0.70;;
63008;SDS011;49099;28.428;-16.488;2023-02-26T05:00:13;2.40;;;0.80;;
63008;SDS011;49099;28.428;-16.488;2023-02-26T05:02:41;1.90;;;0.93;;
63008;SDS011;49099;28.428;-16.488;2023-02-26T05:05:08;3.05;;;0.88;;
63008;SDS011;49099;28.428;-16.488;2023-02-26T05:07:35;2.08;;;0.80;;
63008;SDS011;49099;28.428;-16.488;2023-02-26T05:10:03;1.02;;;0.57;;
63008;SDS011;49099;28.428;-16.488;2023-02-26T05:12:32;3.60;;;0.60;;
63008;SDS011;49099;28.428;-16.488;2023-02-26T05:14:59;4.90;;;0.95;;
63008;SDS011;49099;28.428;-16.488;2023-02-26T05:17:26;1.70;;;0.70;;
63008;SDS011;49099;28.428;-16.488;2023-02-26T05:19:53;4.25;;;0.88;;
63008;SDS011;49099;28.428;-16.488;2023-02-26T05:22:20;5.28;;;0.85;;
63008;SDS011;49099;28.428;-16.488;2023-02-26T05:24:48;2.72;;;0.68;;
63008;SDS011;49099;28.428;-16.488;2023-02-26T05:27:15;3.08;;;0.90;;
63008;SDS011;49099;28.428;-16.488;2023-02-26T05:29:42;2.78;;;0.57;;
63008;SDS011;49099;28.428;-16.488;2023-02-26T05:32:10;1.42;;;0.63;;
63008;SDS011;49099;28.428;-16.488;2023-02-26T05:34:37;4.75;;;0.70;;
63008;SDS011;49099;28.428;-16.488;2023-02-26T05:37:04;2.78;;;0.80;;
63008;SDS011;49099;28.428;-16.488;2023-02-26T05:39:31;2.80;;;0.75;;
63008;SDS011;49099;28.428;-16.488;2023-02-26T05:41:58;2.70;;;0.90;;
63008;SDS011;49099;28.428;-16.488;2023-02-26T05:44:25;4.82;;;0.70;;
63008;SDS011;49099;28.428;-16.488;2023-02-26T05:46:53;1.35;;;0.57;;
63008;SDS011;49099;28.428;-16.488;2023-02-26T05:49:20;2.20;;;0.80;;
63008;SDS011;49099;28.428;-16.488;2023-02-26T05:51:47;3.35;;;0.77;;
63008;SDS011;49099;28.428;-16.488;2023-02-26T05:54:14;2.50;;;0.60;;
63008;SDS011;49099;28.428;-16.488;2023-02-26T05:56:42;2.97;;;0.70;;
63008;SDS011;49099;28.428;-16.488;2023-02-26T05:59:09;2.45;;;0.73;;
63008;SDS011;49099;28.428;-16.488;2023-02-26T06:01:36;2.63;;;0.82;;
63008;SDS011;49099;28.428;-16.488;2023-02-26T06:04:04;2.38;;;1.00;;
63008;SDS011;49099;28.428;-16.488;2023-02-26T06:06:32;7.30;;;0.90;;
63008;SDS011;49099;28.428;-16.488;2023-02-26T06:08:59;3.13;;;0.88;;
63008;SDS011;49099;28.428;-16.488;2023-02-26T06:11:30;3.15;;;0.80;;
63008;SDS011;49099;28.428;-16.488;2023-02-26T06:13:59;4.53;;;1.00;;
63008;SDS011;49099;28.428;-16.488;2023-02-26T06:16:27;4.35;;;1.20;;
63008;SDS011;49099;28.428;-16.488;2023-02-26T06:18:54;4.82;;;0.80;;
63008;SDS011;49099;28.428;-16.488;2023-02-26T06:21:21;1.83;;;0.85;;
63008;SDS011;49099;28.428;-16.488;2023-02-26T06:23:48;4.65;;;0.98;;
63008;SDS011;49099;28.428;-16.488;2023-02-26T06:26:15;3.33;;;1.02;;
63008;SDS011;49099;28.428;-16.488;2023-02-26T06:28:42;4.68;;;0.90;;
63008;SDS011;49099;28.428;-16.488;2023-02-26T06:31:10;3.50;;;0.82;;
63008;SDS011;49099;28.428;-16.488;2023-02-26T06:33:37;3.75;;;0.80;;
63008;SDS011;49099;28.428;-16.488;2023-02-26T06:36:04;4.18;;;0.93;;
63008;SDS011;49099;28.428;-16.488;2023-02-26T06:38:32;3.88;;;0.88;;
63008;SDS011;49099;28.428;-16.488;2023-02-26T06:40:59;5.13;;;1.23;;
63008;SDS011;49099;28.428;-16.488;2023-02-26T06:43:26;3.88;;;1.00;;
63008;SDS011;49099;28.428;-16.488;2023-02-26T06:45:56;6.30;;;1.08;;
63008;SDS011;49099;28.428;-16.488;2023-02-26T06:48:24;4.70;;;1.10;;
63008;SDS011;49099;28.428;-16.488;2023-02-26T06:50:52;2.63;;;0.75;;
63008;SDS011;49099;28.428;-16.488;2023-02-26T06:53:19;3.63;;;0.98;;
63008;SDS011;49099;28.428;-16.488;2023-02-26T06:55:50;10.25;;;1.27;;
63008;SDS011;49099;28.428;-16.488;2023-02-26T06:58:19;5.80;;;0.98;;
63008;SDS011;49099;28.428;-16.488;2023-02-26T07:00:46;4.45;;;1.02;;
63008;SDS011;49099;28.428;-16.488;2023-02-26T07:03:14;5.03;;;0.90;;
63008;SDS011;49099;28.428;-16.488;2023-02-26T07:05:43;7.13;;;1.05;;
63008;SDS011;49099;28.428;-16.488;2023-02-26T07:08:11;5.22;;;0.95;;
63008;SDS011;49099;28.428;-16.488;2023-02-26T07:10:39;3.28;;;0.90;;
63008;SDS011;49099;28.428;-16.488;2023-02-26T07:13:06;5.18;;;1.35;;
63008;SDS011;49099;28.428;-16.488;2023-02-26T07:15:33;4.82;;;0.80;;
63008;SDS011;49099;28.428;-16.488;2023-02-26T07:18:01;3.97;;;0.68;;
63008;SDS011;49099;28.428;-16.488;2023-02-26T07:20:28;3.60;;;0.90;;
63008;SDS011;49099;28.428;-16.488;2023-02-26T07:22:55;3.38;;;0.80;;
63008;SDS011;49099;28.428;-16.488;2023-02-26T07:25:23;3.63;;;0.68;;
63008;SDS011;49099;28.428;-16.488;2023-02-26T07:27:50;3.30;;;0.80;;
63008;SDS011;49099;28.428;-16.488;2023-02-26T07:30:17;3.63;;;1.05;;
63008;SDS011;49099;28.428;-16.488;2023-02-26T07:32:44;3.63;;;0.90;;
63008;SDS011;49099;28.428;-16.488;2023-02-26T07:35:11;2.90;;;0.73;;
63008;SDS011;49099;28.428;-16.488;2023-02-26T07:37:39;4.40;;;0.90;;
63008;SDS011;49099;28.428;-16.488;2023-02-26T07:40:06;3.38;;;0.80;;
63008;SDS011;49099;28.428;-16.488;2023-02-26T07:42:34;1.60;;;0.60;;
63008;SDS011;49099;28.428;-16.488;2023-02-26T07:45:01;3.10;;;0.80;;
63008;SDS011;49099;28.428;-16.488;2023-02-26T07:47:28;3.08;;;0.90;;
63008;SDS011;49099;28.428;-16.488;2023-02-26T07:49:56;2.33;;;0.70;;
63008;SDS011;49099;28.428;-16.488;2023-02-26T07:52:23;3.55;;;0.80;;
63008;SDS011;49099;28.428;-16.488;2023-02-26T07:54:50;3.10;;;0.60;;
63008;SDS011;49099;28.428;-16.488;2023-02-26T07:57:17;2.38;;;0.60;;
63008;SDS011;49099;28.428;-16.488;2023-02-26T07:59:45;2.33;;;0.70;;
63008;SDS011;49099;28.428;-16.488;2023-02-26T08:02:12;3.80;;;0.70;;
63008;SDS011;49099;28.428;-16.488;2023-02-26T08:04:39;2.97;;;0.80;;
63008;SDS011;49099;28.428;-16.488;2023-02-26T08:07:08;1.45;;;0.63;;
63008;SDS011;49099;28.428;-16.488;2023-02-26T08:09:35;1.65;;;0.70;;
63008;SDS011;49099;28.428;-16.488;2023-02-26T08:12:03;2.47;;;0.70;;
63008;SDS011;49099;28.428;-16.488;2023-02-26T08:14:30;1.95;;;0.70;;
63008;SDS011;49099;28.428;-16.488;2023-02-26T08:16:57;1.48;;;0.80;;
63008;SDS011;49099;28.428;-16.488;2023-02-26T08:19:24;1.63;;;0.80;;
63008;SDS011;49099;28.428;-16.488;2023-02-26T08:21:51;1.80;;;0.80;;
63008;SDS011;49099;28.428;-16.488;2023-02-26T08:24:21;2.15;;;0.82;;
63008;SDS011;49099;28.428;-16.488;2023-02-26T08:26:48;2.95;;;0.70;;
63008;SDS011;49099;28.428;-16.488;2023-02-26T08:29:15;1.40;;;0.60;;
63008;SDS011;49099;28.428;-16.488;2023-02-26T08:31:42;2.28;;;0.85;;
63008;SDS011;49099;28.428;-16.488;2023-02-26T08:34:09;2.88;;;0.73;;
63008;SDS011;49099;28.428;-16.488;2023-02-26T08:36:37;1.65;;;0.60;;
63008;SDS011;49099;28.428;-16.488;2023-02-26T08:39:04;1.92;;;0.60;;
63008;SDS011;49099;28.428;-16.488;2023-02-26T08:41:32;1.23;;;0.65;;
63008;SDS011;49099;28.428;-16.488;2023-02-26T08:44:03;3.05;;;0.70;;
63008;SDS011;49099;28.428;-16.488;2023-02-26T08:46:30;3.58;;;0.80;;
63008;SDS011;49099;28.428;-16.488;2023-02-26T08:48:57;2.60;;;0.60;;
63008;SDS011;49099;28.428;-16.488;2023-02-26T08:51:24;3.03;;;0.80;;
63008;SDS011;49099;28.428;-16.488;2023-02-26T08:53:52;2.13;;;0.60;;
63008;SDS011;49099;28.428;-16.488;2023-02-26T08:56:19;0.98;;;0.60;;
63008;SDS011;49099;28.428;-16.488;2023-02-26T08:58:46;0.98;;;0.50;;
63008;SDS011;49099;28.428;-16.488;2023-02-26T09:01:13;2.67;;;0.70;;
63008;SDS011;49099;28.428;-16.488;2023-02-26T09:03:41;2.30;;;0.70;;
63008;SDS011;49099;28.428;-16.488;2023-02-26T09:06:08;3.30;;;0.77;;
63008;SDS011;49099;28.428;-16.488;2023-02-26T09:08:35;2.58;;;0.70;;
63008;SDS011;49099;28.428;-16.488;2023-02-26T09:11:02;3.33;;;0.70;;
63008;SDS011;49099;28.428;-16.488;2023-02-26T09:13:31;1.67;;;0.65;;
63008;SDS011;49099;28.428;-16.488;2023-02-26T09:15:58;2.88;;;0.70;;
63008;SDS011;49099;28.428;-16.488;2023-02-26T09:18:25;1.40;;;0.57;;
63008;SDS011;49099;28.428;-16.488;2023-02-26T09:20:52;3.03;;;1.00;;
63008;SDS011;49099;28.428;-16.488;2023-02-26T09:23:19;0.90;;;0.60;;
63008;SDS011;49099;28.428;-16.488;2023-02-26T09:25:50;1.45;;;0.80;;
63008;SDS011;49099;28.428;-16.488;2023-02-26T09:28:20;3.22;;;0.70;;
63008;SDS011;49099;28.428;-16.488;2023-02-26T09:30:51;1.65;;;0.43;;
63008;SDS011;49099;28.428;-16.488;2023-02-26T09:33:20;1.30;;;0.50;;
63008;SDS011;49099;28.428;-16.488;2023-02-26T09:35:48;0.63;;;0.50;;
63008;SDS011;49099;28.428;-16.488;2023-02-26T09:38:17;1.67;;;0.70;;
63008;SDS011;49099;28.428;-16.488;2023-02-26T09:40:47;2.40;;;0.70;;
63008;SDS011;49099;28.428;-16.488;2023-02-26T09:46:18;1.80;;;0.68;;
63008;SDS011;49099;28.428;-16.488;2023-02-26T09:49:03;2.97;;;0.68;;
63008;SDS011;49099;28.428;-16.488;2023-02-26T09:51:37;1.38;;;0.45;;
63008;SDS011;49099;28.428;-16.488;2023-02-26T09:54:13;2.10;;;0.80;;
63008;SDS011;49099;28.428;-16.488;2023-02-26T09:56:47;3.63;;;0.95;;
63008;SDS011;49099;28.428;-16.488;2023-02-26T09:59:15;5.32;;;1.10;;
63008;SDS011;49099;28.428;-16.488;2023-02-26T10:04:35;10.20;;;1.58;;
63008;SDS011;49099;28.428;-16.488;2023-02-26T10:12:48;6.55;;;1.55;;
63008;SDS011;49099;28.428;-16.488;2023-02-26T10:15:27;8.93;;;1.85;;
63008;SDS011;49099;28.428;-16.488;2023-02-26T10:18:15;10.68;;;1.80;;
63008;SDS011;49099;28.428;-16.488;2023-02-26T10:20:54;9.45;;;1.60;;
63008;SDS011;49099;28.428;-16.488;2023-02-26T10:28:50;10.55;;;2.13;;
63008;SDS011;49099;28.428;-16.488;2023-02-26T10:34:30;10.50;;;1.88;;
63008;SDS011;49099;28.428;-16.488;2023-02-26T10:39:47;5.03;;;1.35;;
63008;SDS011;49099;28.428;-16.488;2023-02-26T10:42:34;11.43;;;1.95;;
63008;SDS011;49099;28.428;-16.488;2023-02-26T10:48:18;15.60;;;2.35;;
63008;SDS011;49099;28.428;-16.488;2023-02-26T10:50:50;11.82;;;2.30;;
63008;SDS011;49099;28.428;-16.488;2023-02-26T10:55:49;8.68;;;1.50;;
63008;SDS011;49099;28.428;-16.488;2023-02-26T10:58:22;8.27;;;1.30;;
63008;SDS011;49099;28.428;-16.488;2023-02-26T11:00:52;7.53;;;1.50;;
63008;SDS011;49099;28.428;-16.488;2023-02-26T11:05:57;8.90;;;2.08;;
63008;SDS011;49099;28.428;-16.488;2023-02-26T11:08:27;18.08;;;2.63;;
63008;SDS011;49099;28.428;-16.488;2023-02-26T11:10:59;27.67;;;4.13;;
63008;SDS011;49099;28.428;-16.488;2023-02-26T11:13:29;18.70;;;3.25;;
63008;SDS011;49099;28.428;-16.488;2023-02-26T11:16:02;32.00;;;5.10;;
63008;SDS011;49099;28.428;-16.488;2023-02-26T11:18:48;37.88;;;6.20;;
63008;SDS011;49099;28.428;-16.488;2023-02-26T11:21:29;26.35;;;4.72;;
63008;SDS011;49099;28.428;-16.488;2023-02-26T11:24:04;23.45;;;3.92;;
63008;SDS011;49099;28.428;-16.488;2023-02-26T11:26:38;19.88;;;3.95;;
63008;SDS011;49099;28.428;-16.488;2023-02-26T11:29:17;21.17;;;3.88;;
63008;SDS011;49099;28.428;-16.488;2023-02-26T11:34:22;15.68;;;2.70;;
63008;SDS011;49099;28.428;-16.488;2023-02-26T11:36:50;22.25;;;3.30;;
63008;SDS011;49099;28.428;-16.488;2023-02-26T11:39:22;18.05;;;3.10;;
63008;SDS011;49099;28.428;-16.488;2023-02-26T11:41:52;22.58;;;3.60;;
63008;SDS011;49099;28.428;-16.488;2023-02-26T11:46:56;20.07;;;3.10;;
63008;SDS011;49099;28.428;-16.488;2023-02-26T11:49:27;19.90;;;3.67;;
63008;SDS011;49099;28.428;-16.488;2023-02-26T11:54:37;14.50;;;3.00;;
63008;SDS011;49099;28.428;-16.488;2023-02-26T11:57:06;30.38;;;4.57;;
63008;SDS011;49099;28.428;-16.488;2023-02-26T12:02:19;29.95;;;5.40;;
63008;SDS011;49099;28.428;-16.488;2023-02-26T12:04:52;27.40;;;5.38;;
63008;SDS011;49099;28.428;-16.488;2023-02-26T12:07:22;34.65;;;4.50;;
63008;SDS011;49099;28.428;-16.488;2023-02-26T12:09:49;27.55;;;4.32;;
63008;SDS011;49099;28.428;-16.488;2023-02-26T12:17:53;47.40;;;7.70;;
63008;SDS011;49099;28.428;-16.488;2023-02-26T12:20:32;26.15;;;4.80;;
63008;SDS011;49099;28.428;-16.488;2023-02-26T12:28:39;24.50;;;4.70;;
63008;SDS011;49099;28.428;-16.488;2023-02-26T12:45:05;28.90;;;3.88;;
63008;SDS011;49099;28.428;-16.488;2023-02-26T12:47:49;22.95;;;3.85;;
63008;SDS011;49099;28.428;-16.488;2023-02-26T13:05:10;19.55;;;3.38;;
63008;SDS011;49099;28.428;-16.488;2023-02-26T13:21:39;20.52;;;3.05;;
63008;SDS011;49099;28.428;-16.488;2023-02-26T13:24:14;26.52;;;3.58;;
63008;SDS011;49099;28.428;-16.488;2023-02-26T13:26:46;16.65;;;2.80;;
63008;SDS011;49099;28.428;-16.488;2023-02-26T13:29:18;17.17;;;3.00;;
63008;SDS011;49099;28.428;-16.488;2023-02-26T13:31:57;16.65;;;2.78;;
63008;SDS011;49099;28.428;-16.488;2023-02-26T13:35:05;20.33;;;3.55;;
63008;SDS011;49099;28.428;-16.488;2023-02-26T13:37:44;19.33;;;3.50;;
63008;SDS011;49099;28.428;-16.488;2023-02-26T13:40:34;21.70;;;3.20;;
63008;SDS011;49099;28.428;-16.488;2023-02-26T14:04:27;20.73;;;3.80;;
63008;SDS011;49099;28.428;-16.488;2023-02-26T14:17:39;17.60;;;2.50;;
63008;SDS011;49099;28.428;-16.488;2023-02-26T14:22:45;19.23;;;3.22;;
63008;SDS011;49099;28.428;-16.488;2023-02-26T14:30:46;15.45;;;1.98;;
63008;SDS011;49099;28.428;-16.488;2023-02-26T14:33:17;12.60;;;2.22;;
63008;SDS011;49099;28.428;-16.488;2023-02-26T14:35:52;7.93;;;1.40;;
63008;SDS011;49099;28.428;-16.488;2023-02-26T14:38:24;10.35;;;1.88;;
63008;SDS011;49099;28.428;-16.488;2023-02-26T14:40:54;10.93;;;1.92;;
63008;SDS011;49099;28.428;-16.488;2023-02-26T14:43:36;7.85;;;1.58;;
63008;SDS011;49099;28.428;-16.488;2023-02-26T14:46:06;8.07;;;1.55;;
63008;SDS011;49099;28.428;-16.488;2023-02-26T14:48:36;6.25;;;1.48;;
63008;SDS011;49099;28.428;-16.488;2023-02-26T14:56:16;5.65;;;1.33;;
63008;SDS011;49099;28.428;-16.488;2023-02-26T15:04:22;15.30;;;2.33;;
63008;SDS011;49099;28.428;-16.488;2023-02-26T15:20:17;19.17;;;2.83;;
63008;SDS011;49099;28.428;-16.488;2023-02-26T15:22:54;22.38;;;3.72;;
63008;SDS011;49099;28.428;-16.488;2023-02-26T15:25:26;7.82;;;1.67;;
63008;SDS011;49099;28.428;-16.488;2023-02-26T15:27:57;6.82;;;1.40;;
63008;SDS011;49099;28.428;-16.488;2023-02-26T15:30:25;8.75;;;1.60;;
63008;SDS011;49099;28.428;-16.488;2023-02-26T15:32:55;26.45;;;3.17;;
63008;SDS011;49099;28.428;-16.488;2023-02-26T15:35:27;17.35;;;2.95;;
63008;SDS011;49099;28.428;-16.488;2023-02-26T15:37:56;16.00;;;2.63;;
63008;SDS011;49099;28.428;-16.488;2023-02-26T15:40:28;10.55;;;2.10;;
63008;SDS011;49099;28.428;-16.488;2023-02-26T15:42:58;13.88;;;2.33;;
63008;SDS011;49099;28.428;-16.488;2023-02-26T15:48:48;17.30;;;2.35;;
63008;SDS011;49099;28.428;-16.488;2023-02-26T15:51:05;16.73;;;2.55;;
63008;SDS011;49099;28.428;-16.488;2023-02-26T15:53:44;20.25;;;2.70;;
63008;SDS011;49099;28.428;-16.488;2023-02-26T15:56:24;21.73;;;2.70;;
63008;SDS011;49099;28.428;-16.488;2023-02-26T15:58:58;8.48;;;1.95;;
63008;SDS011;49099;28.428;-16.488;2023-02-26T16:01:27;15.63;;;2.10;;
63008;SDS011;49099;28.428;-16.488;2023-02-26T16:03:56;21.42;;;3.22;;
63008;SDS011;49099;28.428;-16.488;2023-02-26T16:06:37;26.58;;;3.90;;
63008;SDS011;49099;28.428;-16.488;2023-02-26T16:09:07;16.30;;;3.28;;
63008;SDS011;49099;28.428;-16.488;2023-02-26T16:11:41;21.30;;;3.63;;
63008;SDS011;49099;28.428;-16.488;2023-02-26T16:14:21;24.60;;;3.33;;
63008;SDS011;49099;28.428;-16.488;2023-02-26T16:16:52;12.98;;;2.22;;
63008;SDS011;49099;28.428;-16.488;2023-02-26T16:19:26;11.65;;;1.83;;
63008;SDS011;49099;28.428;-16.488;2023-02-26T16:22:10;7.45;;;1.50;;
63008;SDS011;49099;28.428;-16.488;2023-02-26T16:24:38;13.20;;;1.90;;
63008;SDS011;49099;28.428;-16.488;2023-02-26T16:27:06;9.68;;;1.52;;
63008;SDS011;49099;28.428;-16.488;2023-02-26T16:29:40;10.48;;;2.10;;
63008;SDS011;49099;28.428;-16.488;2023-02-26T16:32:16;9.73;;;2.08;;
63008;SDS011;49099;28.428;-16.488;2023-02-26T16:34:51;9.68;;;1.88;;
63008;SDS011;49099;28.428;-16.488;2023-02-26T16:39:54;6.88;;;1.40;;
63008;SDS011;49099;28.428;-16.488;2023-02-26T16:42:31;5.50;;;1.35;;
63008;SDS011;49099;28.428;-16.488;2023-02-26T16:47:43;6.50;;;1.25;;
63008;SDS011;49099;28.428;-16.488;2023-02-26T16:50:15;7.68;;;1.35;;
63008;SDS011;49099;28.428;-16.488;2023-02-26T16:52:56;6.25;;;1.65;;
63008;SDS011;49099;28.428;-16.488;2023-02-26T16:55:31;4.72;;;1.27;;
63008;SDS011;49099;28.428;-16.488;2023-02-26T16:58:01;6.40;;;1.20;;
63008;SDS011;49099;28.428;-16.488;2023-02-26T17:00:32;5.05;;;1.30;;
63008;SDS011;49099;28.428;-16.488;2023-02-26T17:05:48;6.28;;;1.40;;
63008;SDS011;49099;28.428;-16.488;2023-02-26T17:08:50;5.30;;;1.40;;
63008;SDS011;49099;28.428;-16.488;2023-02-26T17:11:34;4.93;;;1.42;;
63008;SDS011;49099;28.428;-16.488;2023-02-26T17:14:21;6.45;;;1.90;;
63008;SDS011;49099;28.428;-16.488;2023-02-26T17:16:51;8.35;;;1.73;;
63008;SDS011;49099;28.428;-16.488;2023-02-26T17:19:18;7.32;;;1.52;;
63008;SDS011;49099;28.428;-16.488;2023-02-26T17:21:51;7.10;;;1.80;;
63008;SDS011;49099;28.428;-16.488;2023-02-26T17:24:22;7.28;;;1.90;;
63008;SDS011;49099;28.428;-16.488;2023-02-26T17:26:57;7.55;;;2.00;;
63008;SDS011;49099;28.428;-16.488;2023-02-26T17:29:41;5.50;;;1.52;;
63008;SDS011;49099;28.428;-16.488;2023-02-26T17:32:16;7.35;;;1.85;;
63008;SDS011;49099;28.428;-16.488;2023-02-26T17:34:45;8.68;;;1.67;;
63008;SDS011;49099;28.428;-16.488;2023-02-26T17:37:13;7.43;;;1.70;;
63008;SDS011;49099;28.428;-16.488;2023-02-26T17:39:41;10.88;;;2.05;;
63008;SDS011;49099;28.428;-16.488;2023-02-26T17:42:10;5.70;;;1.50;;
63008;SDS011;49099;28.428;-16.488;2023-02-26T17:44:38;7.72;;;1.75;;
63008;SDS011;49099;28.428;-16.488;2023-02-26T17:47:05;7.55;;;1.70;;
63008;SDS011;49099;28.428;-16.488;2023-02-26T17:49:35;7.03;;;1.30;;
63008;SDS011;49099;28.428;-16.488;2023-02-26T17:52:02;8.15;;;1.48;;
63008;SDS011;49099;28.428;-16.488;2023-02-26T17:54:29;8.18;;;1.52;;
63008;SDS011;49099;28.428;-16.488;2023-02-26T17:56:56;8.93;;;1.48;;
63008;SDS011;49099;28.428;-16.488;2023-02-26T17:59:25;11.50;;;1.60;;
63008;SDS011;49099;28.428;-16.488;2023-02-26T18:01:52;9.27;;;1.50;;
63008;SDS011;49099;28.428;-16.488;2023-02-26T18:04:20;8.00;;;1.50;;
63008;SDS011;49099;28.428;-16.488;2023-02-26T18:06:48;9.25;;;1.50;;
63008;SDS011;49099;28.428;-16.488;2023-02-26T18:09:15;5.18;;;1.35;;
63008;SDS011;49099;28.428;-16.488;2023-02-26T18:11:43;6.05;;;1.30;;
63008;SDS011;49099;28.428;-16.488;2023-02-26T18:14:10;11.40;;;1.38;;